Time;durP1;ratioP1;P1;durP2;ratioP2;P2;SDS_P1;SDS_P2;PMS_P1;PMS_P2;Temp;Humidity;BMP_temperature;BMP_pressure;BME280_temperature;BME280_humidity;BME280_pressure;Samples;Min_cycle;Max_cycle;Signal;HPM_P1;HPM_P2
2022/09/25 00:01:13;;;;;;;7.97;7.27;;;19.10;64.90;20.40;100507.00;;;;4970319;28;20176;-44
2022/09/25 00:03:39;;;;;;;7.60;6.90;;;19.10;65.00;20.40;100509.00;;;;4969690;28;20169;-43
2022/09/25 00:06:14;;;;;;;7.77;7.07;;;19.10;65.00;20.40;100517.00;;;;4969853;28;20189;-43
2022/09/25 00:08:39;;;;;;;7.53;6.93;;;19.10;65.00;20.40;100518.00;;;;4968915;28;20193;-44
2022/09/25 00:11:10;;;;;;;7.37;6.77;;;19.10;65.10;20.30;100528.00;;;;4970023;28;20205;-44
2022/09/25 00:13:36;;;;;;;7.83;7.13;;;19.10;65.10;20.30;100524.00;;;;4969620;28;20298;-43
2022/09/25 00:16:02;;;;;;;7.47;6.87;;;19.00;65.00;20.30;100525.00;;;;4970244;28;20265;-44
2022/09/25 00:21:13;;;;;;;7.33;6.73;;;19.00;65.00;20.30;100525.00;;;;4971367;28;20276;-43
2022/09/25 00:23:42;;;;;;;7.17;6.53;;;19.10;65.20;20.30;100522.00;;;;4970098;28;20287;-43
2022/09/25 00:26:08;;;;;;;7.80;7.10;;;19.00;65.10;20.30;100526.00;;;;4969865;28;20333;-43
2022/09/25 00:28:35;;;;;;;7.43;6.83;;;19.00;65.10;20.30;100528.00;;;;4969846;28;20184;-43
2022/09/25 00:31:03;;;;;;;6.87;6.30;;;19.00;65.10;20.30;100520.00;;;;4970241;28;20177;-43
2022/09/25 00:33:30;;;;;;;7.27;6.67;;;19.00;65.10;20.30;100520.00;;;;4969374;28;20640;-43
2022/09/25 00:36:00;;;;;;;6.57;6.03;;;19.00;66.00;20.30;100519.00;;;;4968743;28;20173;-43
2022/09/25 00:38:26;;;;;;;7.20;6.60;;;19.00;65.40;20.30;100516.00;;;;4968881;28;20217;-43
2022/09/25 00:40:52;;;;;;;6.57;5.97;;;19.00;65.40;20.20;100519.00;;;;4969892;28;20590;-43
2022/09/25 00:43:33;;;;;;;7.20;6.50;;;19.00;65.30;20.20;100509.00;;;;4969406;28;20172;-44
2022/09/25 00:46:00;;;;;;;7.53;6.70;;;19.00;65.30;20.20;100523.00;;;;4969638;28;20188;-43
2022/09/25 00:48:26;;;;;;;6.80;6.20;;;19.00;65.40;20.20;100519.00;;;;4968220;28;20255;-44
2022/09/25 00:50:54;;;;;;;7.30;6.60;;;19.00;65.40;20.20;100510.00;;;;4968374;28;20217;-44
2022/09/25 00:53:36;;;;;;;6.77;6.13;;;19.00;65.40;20.20;100507.00;;;;4968035;28;20173;-42
2022/09/25 00:56:01;;;;;;;8.53;6.27;;;19.00;65.40;20.20;100516.00;;;;4968178;28;20196;-44
2022/09/25 00:58:27;;;;;;;6.60;6.10;;;18.90;65.30;20.20;100514.00;;;;4969174;28;20227;-44
2022/09/25 01:00:53;;;;;;;7.03;6.43;;;19.00;65.40;20.20;100516.00;;;;4968095;28;20169;-43
2022/09/25 01:03:19;;;;;;;6.43;5.83;;;18.90;65.50;20.20;100517.00;;;;4969329;28;20180;-43
2022/09/25 01:05:45;;;;;;;6.77;6.17;;;18.90;65.50;20.10;100519.00;;;;4951685;28;20197;-43
2022/09/25 01:08:15;;;;;;;6.77;6.17;;;18.90;65.60;20.10;100514.00;;;;4951709;28;20196;-43
2022/09/25 01:10:41;;;;;;;6.40;5.80;;;18.90;65.40;20.10;100522.00;;;;4952405;28;20181;-42
2022/09/25 01:13:07;;;;;;;6.80;6.20;;;18.90;65.50;20.10;100524.00;;;;4968972;28;20195;-43
2022/09/25 01:15:58;;;;;;;6.10;5.60;;;18.90;65.50;20.10;100451.00;;;;4967939;28;20294;-43
2022/09/25 01:18:58;;;;;;;6.53;5.93;;;18.90;65.50;20.10;100521.00;;;;4953766;28;20193;-43
2022/09/25 01:21:52;;;;;;;6.53;6.03;;;18.90;65.50;20.10;100511.00;;;;4968349;28;20185;-43
2022/09/25 01:24:42;;;;;;;6.67;6.10;;;18.90;65.50;20.10;100514.00;;;;4967661;28;20200;-43
2022/09/25 01:27:33;;;;;;;6.77;6.20;;;18.90;65.50;20.10;100521.00;;;;4969049;28;20224;-43
2022/09/25 01:30:11;;;;;;;7.10;6.50;;;18.90;65.60;20.10;100512.00;;;;4967903;28;20281;-42
2022/09/25 01:32:59;;;;;;;6.87;6.27;;;18.90;65.60;20.10;100526.00;;;;4969256;28;20190;-44
2022/09/25 01:35:48;;;;;;;6.63;6.10;;;18.90;65.50;20.00;100515.00;;;;4973306;28;20324;-43
2022/09/25 01:38:25;;;;;;;6.57;6.07;;;18.90;65.60;20.00;100522.00;;;;4971752;28;20203;-43
2022/09/25 01:41:13;;;;;;;6.80;6.20;;;18.80;65.50;20.00;100521.00;;;;4972935;28;20203;-42
2022/09/25 01:44:01;;;;;;;6.60;6.10;;;18.80;65.50;20.00;100443.00;;;;4975125;28;20173;-43
2022/09/25 01:46:43;;;;;;;6.87;6.37;;;18.80;65.50;20.00;100525.00;;;;4971502;28;20255;-43
2022/09/25 01:49:28;;;;;;;7.37;6.70;;;18.80;65.70;20.00;100524.00;;;;4956722;28;20205;-43
2022/09/25 01:51:54;;;;;;;7.50;6.80;;;18.80;65.70;19.90;100510.00;;;;4971813;28;20176;-43
2022/09/25 01:54:33;;;;;;;7.33;6.73;;;18.80;65.70;20.00;100519.00;;;;4955044;28;20228;-42
2022/09/25 01:57:28;;;;;;;8.40;7.70;;;18.80;65.70;20.00;100521.00;;;;4971349;28;20219;-42
2022/09/25 02:00:11;;;;;;;8.97;8.17;;;18.80;65.70;20.00;100522.00;;;;4974727;28;20259;-43
2022/09/25 02:02:48;;;;;;;8.80;8.00;;;18.80;65.80;20.00;100522.00;;;;4971261;28;20177;-43
2022/09/25 02:05:25;;;;;;;9.03;8.13;;;18.80;66.20;20.00;100518.00;;;;4955344;28;20203;-43
2022/09/25 02:07:57;;;;;;;9.70;8.80;;;18.80;65.70;19.90;100518.00;;;;4956737;28;20172;-43
2022/09/25 02:10:35;;;;;;;8.73;7.93;;;18.80;65.70;20.00;100520.00;;;;4971285;28;20165;-42
2022/09/25 02:13:12;;;;;;;9.57;8.50;;;18.70;65.60;19.90;100518.00;;;;4956400;28;20264;-43
2022/09/25 02:15:43;;;;;;;9.00;8.20;;;18.70;65.60;19.90;100508.00;;;;4958775;28;20788;-43
2022/09/25 02:21:26;;;;;;;9.03;8.13;;;18.70;65.60;19.90;100529.00;;;;4957448;28;20536;-43
2022/09/25 02:24:28;;;;;;;8.47;7.70;;;18.70;65.50;19.90;100521.00;;;;4970185;28;20197;-43
2022/09/25 02:26:54;;;;;;;8.83;7.97;;;18.70;65.40;19.90;100523.00;;;;4957363;28;20613;-44
2022/09/25 02:29:20;;;;;;;8.20;7.40;;;18.60;65.20;19.90;100534.00;;;;4954792;28;20560;-42
2022/09/25 02:31:56;;;;;;;8.70;7.33;;;18.60;65.20;19.90;100530.00;;;;4971946;28;20177;-44
2022/09/25 02:34:21;;;;;;;8.20;6.83;;;18.60;65.20;19.90;100526.00;;;;4971620;28;20665;-42
2022/09/25 02:36:47;;;;;;;7.83;6.30;;;18.60;65.20;19.90;100525.00;;;;4970301;28;20203;-43
2022/09/25 02:39:15;;;;;;;7.00;5.70;;;18.60;65.00;19.90;100531.00;;;;4971778;28;20272;-44
2022/09/25 02:42:06;;;;;;;6.03;5.43;;;18.60;65.00;19.90;100535.00;;;;4970651;28;20173;-44
2022/09/25 02:45:07;;;;;;;6.27;5.33;;;18.60;64.90;19.90;100535.00;;;;4971580;28;20240;-43
2022/09/25 02:47:51;;;;;;;5.40;4.87;;;18.60;64.90;19.90;100522.00;;;;4971751;28;20184;-42
2022/09/25 02:50:38;;;;;;;5.57;4.70;;;18.60;64.80;19.80;100530.00;;;;4971370;28;20204;-43
2022/09/25 02:53:23;;;;;;;4.50;4.10;;;18.60;64.70;19.80;100527.00;;;;4970357;28;20165;-42
2022/09/25 02:56:28;;;;;;;4.93;4.37;;;18.60;64.70;19.80;100536.00;;;;4971156;28;20232;-43
2022/09/25 02:59:01;;;;;;;6.43;4.20;;;18.60;64.60;19.80;100526.00;;;;4938193;29;20194;-42
2022/09/25 03:01:27;;;;;;;4.20;3.80;;;18.60;64.60;19.80;100529.00;;;;4953889;28;20650;-43
2022/09/25 03:03:55;;;;;;;5.13;4.03;;;18.60;64.60;19.80;100528.00;;;;4969882;28;20201;-43
2022/09/25 03:06:21;;;;;;;5.80;4.10;;;18.60;64.60;19.80;100525.00;;;;4969705;28;20223;-43
2022/09/25 03:08:51;;;;;;;5.10;3.97;;;18.60;64.60;19.80;100501.00;;;;4969810;28;20173;-42
2022/09/25 03:11:20;;;;;;;4.93;3.80;;;18.50;64.40;19.80;100515.00;;;;4970225;28;20161;-42
2022/09/25 03:13:49;;;;;;;6.33;3.90;;;18.50;64.40;19.80;100521.00;;;;4969752;28;20255;-44
2022/09/25 03:16:39;;;;;;;7.33;3.87;;;18.50;64.50;19.80;100524.00;;;;4953884;28;20176;-44
2022/09/25 03:19:05;;;;;;;7.13;4.00;;;18.50;64.50;19.80;100534.00;;;;4973352;28;20474;-42
2022/09/25 03:21:31;;;;;;;5.93;3.60;;;18.50;64.50;19.70;100522.00;;;;4970951;28;20173;-42
2022/09/25 03:23:58;;;;;;;4.97;3.40;;;18.50;64.60;19.70;100532.00;;;;4970326;28;20204;-42
2022/09/25 03:26:24;;;;;;;4.40;3.30;;;18.50;64.60;19.70;100550.00;;;;4969687;28;20196;-42
2022/09/25 03:28:51;;;;;;;5.63;3.07;;;18.50;64.60;19.70;100535.00;;;;4969490;28;20252;-42
2022/09/25 03:31:16;;;;;;;5.53;3.40;;;18.50;64.70;19.70;100540.00;;;;4971226;28;20705;-44
2022/09/25 03:33:42;;;;;;;8.97;3.40;;;18.50;64.60;19.70;100544.00;;;;4970902;28;20181;-42
2022/09/25 03:36:11;;;;;;;9.10;3.57;;;18.50;64.60;19.70;100540.00;;;;4970739;28;20236;-42
2022/09/25 03:38:40;;;;;;;7.40;3.10;;;18.60;64.70;19.70;100541.00;;;;4970987;28;20188;-44
2022/09/25 03:41:07;;;;;;;4.10;3.27;;;18.60;64.70;19.70;100540.00;;;;4970549;28;20264;-43
2022/09/25 03:43:35;;;;;;;5.97;3.23;;;18.50;64.40;19.70;100542.00;;;;4970169;28;20177;-43
2022/09/25 03:46:04;;;;;;;7.50;3.23;;;18.50;64.30;19.70;100543.00;;;;4970540;28;20200;-43
2022/09/25 03:48:30;;;;;;;6.93;3.00;;;18.50;64.40;19.70;100541.00;;;;4968774;28;20273;-43
2022/09/25 03:50:56;;;;;;;7.17;3.03;;;18.50;64.30;19.70;100544.00;;;;4970242;28;20195;-44
2022/09/25 03:53:24;;;;;;;4.67;2.93;;;18.50;64.30;19.60;100544.00;;;;4970184;28;20691;-44
2022/09/25 03:55:50;;;;;;;6.93;3.00;;;18.50;64.40;19.70;100547.00;;;;4969808;28;20520;-42
2022/09/25 03:58:16;;;;;;;4.90;3.00;;;18.50;64.50;19.70;100542.00;;;;4969971;28;20223;-43
2022/09/25 04:00:43;;;;;;;4.73;2.60;;;18.50;64.50;19.70;100549.00;;;;4968802;28;20173;-43
2022/09/25 04:03:09;;;;;;;4.07;2.60;;;18.50;64.50;19.70;100532.00;;;;4968878;28;20172;-44
2022/09/25 04:05:34;;;;;;;5.13;2.90;;;18.50;64.40;19.70;100558.00;;;;4969899;28;20213;-43
2022/09/25 04:08:01;;;;;;;5.47;2.60;;;18.50;64.40;19.70;100554.00;;;;4970200;28;20204;-43
2022/09/25 04:10:27;;;;;;;4.40;2.83;;;18.50;64.30;19.60;100544.00;;;;4972410;28;20181;-42
2022/09/25 04:12:53;;;;;;;4.70;2.50;;;18.50;64.30;19.60;100543.00;;;;4970506;28;20238;-42
2022/09/25 04:15:22;;;;;;;3.23;2.53;;;18.50;64.20;19.60;100546.00;;;;4970024;28;20209;-42
2022/09/25 04:17:48;;;;;;;6.77;2.87;;;18.40;64.10;19.60;100543.00;;;;4970130;28;20205;-42
2022/09/25 04:20:14;;;;;;;3.03;2.30;;;18.50;65.00;19.60;100546.00;;;;4969960;28;20173;-44
2022/09/25 04:22:39;;;;;;;3.60;2.53;;;18.40;64.10;19.60;100537.00;;;;4963720;28;20189;-43
2022/09/25 04:25:06;;;;;;;3.33;2.40;;;18.50;64.20;19.60;100533.00;;;;4968931;28;20204;-43
2022/09/25 04:27:32;;;;;;;3.47;2.50;;;18.40;64.00;19.60;100536.00;;;;4969280;28;20185;-42
2022/09/25 04:29:57;;;;;;;5.93;2.33;;;18.50;64.00;19.60;100549.00;;;;4969428;28;20180;-43
2022/09/25 04:35:07;;;;;;;4.67;2.63;;;18.50;63.90;19.60;100530.00;;;;4967647;28;20262;-43
2022/09/25 04:37:33;;;;;;;3.40;2.33;;;18.40;64.00;19.60;100536.00;;;;4969255;28;20203;-43
2022/09/25 04:39:59;;;;;;;4.00;2.40;;;18.40;64.00;19.60;100533.00;;;;4966081;28;20204;-43
2022/09/25 04:42:24;;;;;;;2.60;2.03;;;18.40;64.10;19.60;100540.00;;;;4974830;28;20180;-43
2022/09/25 04:44:54;;;;;;;3.87;2.50;;;18.50;64.10;19.60;100530.00;;;;4986063;28;20191;-43
2022/09/25 04:47:21;;;;;;;2.67;2.30;;;18.40;64.80;19.60;100533.00;;;;4987651;28;20157;-43
2022/09/25 04:49:47;;;;;;;2.57;2.20;;;18.40;64.00;19.60;100542.00;;;;4988623;28;20176;-42
2022/09/25 04:52:14;;;;;;;3.50;2.30;;;18.40;64.00;19.60;100545.00;;;;4988655;28;20238;-42
2022/09/25 04:54:41;;;;;;;2.87;2.17;;;18.40;64.00;19.50;100524.00;;;;4988267;28;20282;-42
2022/09/25 04:57:07;;;;;;;3.00;2.10;;;18.40;64.10;19.60;100542.00;;;;4986785;28;20212;-42
2022/09/25 04:59:33;;;;;;;4.40;2.30;;;18.40;64.10;19.50;100543.00;;;;4988792;28;20164;-42
2022/09/25 05:01:59;;;;;;;3.87;2.20;;;18.40;64.10;19.50;100534.00;;;;4989238;28;20280;-42
2022/09/25 05:04:24;;;;;;;3.80;2.50;;;18.40;64.10;19.50;100534.00;;;;4988797;28;20204;-43
2022/09/25 05:06:50;;;;;;;4.63;2.40;;;18.40;64.10;19.50;100547.00;;;;4988770;28;20172;-41
2022/09/25 05:09:16;;;;;;;3.47;2.23;;;18.40;64.10;19.50;100543.00;;;;4992141;28;20180;-41
2022/09/25 05:11:42;;;;;;;2.30;2.10;;;18.40;64.10;19.50;100545.00;;;;4992326;28;20266;-42
2022/09/25 05:14:08;;;;;;;4.13;2.40;;;18.40;64.10;19.50;100551.00;;;;4991981;28;20664;-42
2022/09/25 05:16:33;;;;;;;2.27;2.03;;;18.40;64.00;19.50;100543.00;;;;4991878;28;20200;-42
2022/09/25 05:18:59;;;;;;;2.87;2.27;;;18.30;63.90;19.50;100554.00;;;;4991948;28;20200;-42
2022/09/25 05:21:25;;;;;;;3.60;2.10;;;18.40;64.10;19.50;100553.00;;;;4992259;28;20176;-42
2022/09/25 05:23:51;;;;;;;4.80;2.30;;;18.30;63.90;19.50;100551.00;;;;4992166;28;20870;-42
2022/09/25 05:26:16;;;;;;;6.20;2.30;;;18.40;64.10;19.50;100544.00;;;;4993093;28;20585;-42
2022/09/25 05:28:42;;;;;;;5.07;2.40;;;18.40;64.00;19.50;100554.00;;;;4992938;28;20766;-42
2022/09/25 05:31:08;;;;;;;5.30;2.10;;;18.40;64.10;19.50;100552.00;;;;4992816;28;20180;-42
2022/09/25 05:33:34;;;;;;;4.50;2.20;;;18.40;64.00;19.50;100548.00;;;;4990993;28;20206;-42
2022/09/25 05:36:04;;;;;;;6.20;2.20;;;18.40;64.00;19.50;100549.00;;;;4992526;28;20196;-43
2022/09/25 05:38:34;;;;;;;2.97;2.20;;;18.30;64.00;19.50;100550.00;;;;4991191;28;20200;-42
2022/09/25 05:41:04;;;;;;;3.07;2.20;;;18.30;64.00;19.50;100551.00;;;;4993022;28;20648;-43
2022/09/25 05:43:31;;;;;;;3.47;2.20;;;18.40;64.10;19.50;100550.00;;;;4992344;28;20177;-43
2022/09/25 05:45:57;;;;;;;4.53;2.10;;;18.30;64.00;19.50;100553.00;;;;4992808;28;20862;-43
2022/09/25 05:48:23;;;;;;;4.47;2.30;;;18.40;64.10;19.50;100556.00;;;;4992607;28;20188;-43
2022/09/25 05:50:55;;;;;;;3.33;2.20;;;18.30;64.10;19.30;100546.00;;;;4992856;28;20195;-42
2022/09/25 05:53:22;;;;;;;4.43;2.20;;;18.30;64.10;19.40;100553.00;;;;4991487;28;20223;-44
2022/09/25 05:55:51;;;;;;;3.20;2.27;;;18.30;64.20;19.40;100548.00;;;;4992367;28;20730;-43
2022/09/25 05:58:17;;;;;;;4.10;2.13;;;18.30;65.00;19.40;100556.00;;;;4991145;28;20215;-43
2022/09/25 06:00:43;;;;;;;3.70;2.10;;;18.30;64.30;19.40;100547.00;;;;4992036;28;20545;-44
2022/09/25 06:03:09;;;;;;;2.60;1.87;;;18.30;64.30;19.40;100556.00;;;;4992679;28;20207;-42
2022/09/25 06:05:35;;;;;;;2.73;2.10;;;18.30;64.20;19.40;100554.00;;;;4995391;28;20557;-42
2022/09/25 06:08:01;;;;;;;2.87;2.10;;;18.30;64.20;19.40;100553.00;;;;4991836;28;20184;-42
2022/09/25 06:10:27;;;;;;;3.03;2.10;;;18.30;64.30;19.40;100555.00;;;;4992159;28;20219;-41
2022/09/25 06:13:00;;;;;;;3.63;2.40;;;18.30;64.30;19.40;100566.00;;;;4991991;28;20227;-42
2022/09/25 06:15:27;;;;;;;2.43;2.00;;;18.30;64.30;19.40;100566.00;;;;4994220;28;20231;-42
2022/09/25 06:17:56;;;;;;;2.13;1.87;;;18.30;64.30;19.40;100568.00;;;;4995298;28;20644;-41
2022/09/25 06:20:22;;;;;;;2.97;1.90;;;18.30;64.30;19.40;100572.00;;;;4993670;28;20267;-42
2022/09/25 06:22:53;;;;;;;2.50;1.90;;;18.30;64.40;19.40;100505.00;;;;4991773;28;20219;-41
2022/09/25 06:25:19;;;;;;;3.33;2.10;;;18.30;64.30;19.40;100561.00;;;;4992119;28;20342;-42
2022/09/25 06:27:44;;;;;;;3.07;1.90;;;18.30;64.40;19.40;100574.00;;;;4990605;28;20180;-43
2022/09/25 06:30:11;;;;;;;2.33;1.87;;;18.30;64.40;19.40;100570.00;;;;4991835;28;20176;-42
2022/09/25 06:32:37;;;;;;;2.40;2.10;;;18.30;64.40;19.40;100573.00;;;;4992081;28;20287;-43
2022/09/25 06:35:03;;;;;;;3.00;2.10;;;18.30;64.50;19.40;100572.00;;;;4991703;28;20313;-42
2022/09/25 06:37:29;;;;;;;2.70;2.00;;;18.30;64.40;19.40;100583.00;;;;4991383;28;20222;-43
2022/09/25 06:39:55;;;;;;;3.30;2.10;;;18.30;64.40;19.40;100587.00;;;;4991877;28;20196;-43
2022/09/25 06:42:20;;;;;;;3.00;2.10;;;18.30;64.40;19.40;100579.00;;;;4991373;28;20184;-42
2022/09/25 06:44:46;;;;;;;2.03;1.83;;;18.20;64.30;19.40;100590.00;;;;4990972;28;20791;-43
2022/09/25 06:47:12;;;;;;;2.07;1.87;;;18.30;64.40;19.30;100601.00;;;;4991139;28;20210;-41
2022/09/25 06:49:38;;;;;;;2.47;2.00;;;18.20;64.30;19.30;100588.00;;;;4991291;28;20190;-43
2022/09/25 06:52:04;;;;;;;3.17;2.00;;;18.20;64.30;19.30;100594.00;;;;4991143;28;20555;-43
2022/09/25 06:54:30;;;;;;;3.70;2.20;;;18.20;64.40;19.30;100607.00;;;;4991233;28;20200;-42
2022/09/25 06:56:56;;;;;;;2.53;2.17;;;18.20;64.30;19.30;100604.00;;;;4990910;28;20229;-42
2022/09/25 06:59:23;;;;;;;2.37;2.17;;;18.20;64.30;19.30;100605.00;;;;4991221;28;20207;-42
2022/09/25 07:01:49;;;;;;;3.23;2.30;;;18.20;64.30;19.30;100607.00;;;;4991289;28;20206;-42
2022/09/25 07:04:15;;;;;;;3.30;2.27;;;18.20;64.40;19.30;100608.00;;;;4990529;28;20223;-43
2022/09/25 07:06:40;;;;;;;3.13;2.30;;;18.20;64.30;19.30;100598.00;;;;4990497;28;20173;-42
2022/09/25 07:09:06;;;;;;;3.23;1.97;;;18.20;64.40;19.30;100592.00;;;;4990920;28;20649;-43
2022/09/25 07:11:32;;;;;;;2.20;2.00;;;18.20;64.40;19.30;100611.00;;;;4991008;28;20204;-42
2022/09/25 07:13:57;;;;;;;2.63;2.10;;;18.20;64.40;19.30;100605.00;;;;4990612;28;20188;-42
2022/09/25 07:16:26;;;;;;;3.10;2.10;;;18.20;64.40;19.30;100610.00;;;;4990851;28;20621;-44
2022/09/25 07:18:59;;;;;;;2.53;2.10;;;18.20;64.40;19.30;100615.00;;;;4991041;28;20172;-44
2022/09/25 07:21:28;;;;;;;3.77;2.23;;;18.20;64.40;19.30;100609.00;;;;4989769;28;20172;-43
2022/09/25 07:23:53;;;;;;;2.80;2.00;;;18.20;64.40;19.30;100614.00;;;;4990407;28;20587;-43
2022/09/25 07:26:22;;;;;;;2.87;2.00;;;18.20;64.40;19.30;100617.00;;;;4991039;28;20258;-42
2022/09/25 07:28:56;;;;;;;3.37;2.00;;;18.10;64.30;19.30;100616.00;;;;4990579;28;20215;-43
2022/09/25 07:31:28;;;;;;;3.10;2.10;;;18.10;64.30;19.30;100620.00;;;;4988547;28;20163;-43
2022/09/25 07:33:54;;;;;;;4.30;2.37;;;18.10;64.40;19.20;100614.00;;;;4990573;28;20198;-43
2022/09/25 07:36:20;;;;;;;3.07;2.00;;;18.20;64.50;19.20;100615.00;;;;4990220;28;20180;-42
2022/09/25 07:38:50;;;;;;;4.83;2.10;;;18.20;65.20;19.20;100615.00;;;;4990531;28;20799;-44
2022/09/25 07:41:17;;;;;;;2.77;2.13;;;18.20;64.30;19.20;100622.00;;;;4989218;28;20176;-44
2022/09/25 07:43:43;;;;;;;2.80;1.83;;;18.10;64.30;19.20;100622.00;;;;4990189;28;20209;-43
2022/09/25 07:46:09;;;;;;;4.27;2.10;;;18.10;64.30;19.20;100618.00;;;;4990415;28;20194;-42
2022/09/25 07:48:34;;;;;;;4.50;2.30;;;18.20;64.50;19.20;100620.00;;;;4990325;28;20410;-43
2022/09/25 07:51:01;;;;;;;2.57;2.00;;;18.10;64.40;19.20;100611.00;;;;4990543;28;20263;-43
2022/09/25 07:53:27;;;;;;;6.50;2.47;;;18.10;64.40;19.20;100609.00;;;;4989076;28;20279;-43
2022/09/25 07:55:59;;;;;;;5.37;2.43;;;18.10;64.40;19.20;100607.00;;;;4988651;28;20259;-42
2022/09/25 07:58:25;;;;;;;2.60;2.10;;;18.20;64.70;19.20;100614.00;;;;4906229;28;20605;-42
2022/09/25 08:00:58;;;;;;;3.57;2.10;;;18.10;64.40;19.20;100605.00;;;;4974981;28;20196;-44
2022/09/25 08:03:24;;;;;;;4.03;2.20;;;18.20;64.50;19.20;100602.00;;;;4990066;28;20149;-42
2022/09/25 08:06:08;;;;;;;3.77;2.10;;;18.10;64.30;19.20;100622.00;;;;4972997;28;20200;-43
2022/09/25 08:08:34;;;;;;;3.10;2.40;;;18.10;64.30;19.20;100614.00;;;;4970139;28;20261;-43
2022/09/25 08:11:08;;;;;;;3.30;2.13;;;18.10;64.30;19.20;100612.00;;;;4970605;28;20648;-42
2022/09/25 08:13:34;;;;;;;3.20;2.00;;;18.10;64.40;19.20;100619.00;;;;4970526;28;20196;-43
2022/09/25 08:16:04;;;;;;;3.23;2.00;;;18.10;64.50;19.20;100622.00;;;;4970646;28;20219;-44
2022/09/25 08:18:30;;;;;;;3.00;1.97;;;18.10;64.40;19.20;100625.00;;;;4970401;28;20193;-43
2022/09/25 08:21:03;;;;;;;2.90;1.93;;;18.10;64.30;19.20;100632.00;;;;4969350;28;20929;-42
2022/09/25 08:23:30;;;;;;;4.33;2.10;;;18.10;64.30;19.20;100614.00;;;;4969890;28;20171;-42
2022/09/25 08:25:55;;;;;;;2.23;1.83;;;18.10;64.30;19.20;100635.00;;;;4969031;28;20172;-43
2022/09/25 08:28:22;;;;;;;3.90;2.20;;;18.20;64.40;19.20;100627.00;;;;4970197;28;20179;-42
2022/09/25 08:30:48;;;;;;;2.80;2.00;;;18.10;64.30;19.20;100633.00;;;;4970311;28;20184;-42
2022/09/25 08:33:14;;;;;;;2.93;2.00;;;18.10;64.40;19.20;100553.00;;;;4969443;28;20169;-42
2022/09/25 08:35:40;;;;;;;2.63;1.80;;;18.10;64.30;19.20;100635.00;;;;4970011;28;20202;-42
2022/09/25 08:38:06;;;;;;;2.30;1.80;;;18.10;64.40;19.10;100626.00;;;;4970637;28;20289;-42
2022/09/25 08:40:32;;;;;;;2.80;1.93;;;18.10;64.40;19.10;100607.00;;;;4970471;28;20664;-42
2022/09/25 08:42:58;;;;;;;2.60;1.93;;;18.20;64.40;19.10;100615.00;;;;4967749;28;20208;-42
2022/09/25 08:49:03;;;;;;;3.63;1.90;;;18.20;64.50;19.10;100610.00;;;;4968974;28;20192;-45
2022/09/25 08:51:21;;;;;;;2.17;1.90;;;18.20;64.40;19.10;100611.00;;;;4967349;28;20298;-42
2022/09/25 08:53:46;;;;;;;2.20;1.70;;;18.10;64.40;19.10;100610.00;;;;4969569;28;20233;-42
2022/09/25 08:56:18;;;;;;;2.53;2.07;;;18.10;64.40;19.10;100611.00;;;;4969765;28;20227;-42
2022/09/25 08:58:51;;;;;;;2.80;1.90;;;18.10;64.50;19.10;100606.00;;;;4911964;28;20821;-43
2022/09/25 09:01:23;;;;;;;2.00;1.80;;;18.10;64.70;19.10;100611.00;;;;4988219;28;20160;-42
2022/09/25 09:04:05;;;;;;;2.67;2.00;;;18.10;64.60;19.10;100615.00;;;;4972128;28;20287;-43
2022/09/25 09:06:32;;;;;;;2.03;1.70;;;18.10;64.70;19.10;100601.00;;;;4987936;28;20164;-42
2022/09/25 09:09:18;;;;;;;2.37;1.80;;;18.20;64.70;19.10;100611.00;;;;4988038;28;20164;-42
2022/09/25 09:11:49;;;;;;;2.03;1.77;;;18.10;64.70;19.10;100619.00;;;;4975420;28;20172;-42
2022/09/25 09:14:17;;;;;;;2.07;1.63;;;18.20;64.80;19.10;100613.00;;;;4969944;28;20214;-41
2022/09/25 09:16:59;;;;;;;2.57;1.80;;;18.10;64.70;19.10;100618.00;;;;4968269;28;20184;-42
2022/09/25 09:19:25;;;;;;;3.20;1.97;;;18.10;64.70;19.10;100618.00;;;;4967732;28;20192;-42
2022/09/25 09:22:02;;;;;;;2.00;1.80;;;18.20;64.80;19.10;100613.00;;;;4968555;28;20181;-42
2022/09/25 09:24:45;;;;;;;2.60;1.87;;;18.20;64.90;19.10;100620.00;;;;4967488;28;20562;-42
2022/09/25 09:27:42;;;;;;;2.60;1.90;;;18.10;64.80;19.10;100616.00;;;;4970088;28;20177;-43
2022/09/25 09:30:33;;;;;;;1.83;1.70;;;18.20;65.00;19.10;100620.00;;;;4969923;28;20666;-42
2022/09/25 09:33:10;;;;;;;2.27;1.93;;;18.10;65.00;19.10;100613.00;;;;4964976;28;20276;-43
2022/09/25 09:36:18;;;;;;;4.07;2.00;;;18.20;65.10;19.10;100610.00;;;;4964823;28;20229;-43
2022/09/25 09:39:24;;;;;;;2.00;1.80;;;18.20;65.00;19.10;100618.00;;;;4948226;28;20236;-43
2022/09/25 09:42:17;;;;;;;3.43;1.80;;;18.20;65.00;19.10;100623.00;;;;4947138;29;20653;-43
2022/09/25 09:44:57;;;;;;;3.00;1.70;;;18.20;65.30;19.10;100609.00;;;;4934138;29;20258;-43
2022/09/25 09:47:38;;;;;;;1.87;1.73;;;18.20;65.30;19.10;100608.00;;;;4950375;29;20252;-42
2022/09/25 09:50:31;;;;;;;2.40;1.80;;;18.20;65.20;19.10;100614.00;;;;4949768;29;20169;-42
2022/09/25 09:53:04;;;;;;;2.33;1.73;;;18.20;65.00;19.10;100604.00;;;;4968212;28;20264;-43
2022/09/25 09:55:43;;;;;;;2.23;1.50;;;18.20;64.90;19.10;100601.00;;;;4955623;28;20199;-42
2022/09/25 09:58:45;;;;;;;3.67;1.90;;;18.20;64.90;19.10;100601.00;;;;4929391;28;20239;-43
2022/09/25 10:01:12;;;;;;;2.20;1.70;;;18.20;65.60;19.10;100601.00;;;;4961096;28;20160;-42
2022/09/25 10:03:38;;;;;;;9.33;2.10;;;18.20;65.60;19.10;100597.00;;;;4955015;28;20180;-43
2022/09/25 10:06:14;;;;;;;8.07;2.00;;;18.30;65.80;19.10;100593.00;;;;4954631;28;20179;-43
2022/09/25 10:08:41;;;;;;;7.63;1.90;;;18.20;65.60;19.10;100586.00;;;;4955743;28;20188;-43
2022/09/25 10:11:17;;;;;;;9.97;1.97;;;18.30;65.70;19.10;100595.00;;;;4970583;28;20764;-43
2022/09/25 10:13:43;;;;;;;6.77;2.20;;;18.30;65.70;19.10;100590.00;;;;4970770;28;20700;-43
2022/09/25 10:16:22;;;;;;;7.00;2.10;;;18.30;65.60;19.10;100592.00;;;;4971425;28;20192;-42
2022/09/25 10:19:01;;;;;;;8.20;2.00;;;18.30;65.60;19.20;100583.00;;;;4970120;28;20195;-42
2022/09/25 10:21:43;;;;;;;5.83;2.07;;;18.30;65.60;19.20;100593.00;;;;4967635;28;20181;-44
2022/09/25 10:24:09;;;;;;;8.87;2.10;;;18.40;66.00;19.20;100599.00;;;;4970829;28;20226;-42
2022/09/25 10:26:38;;;;;;;8.57;2.13;;;18.40;67.40;19.20;100602.00;;;;4971846;28;20200;-44
2022/09/25 10:29:24;;;;;;;10.93;2.10;;;18.50;67.90;19.20;100594.00;;;;4972472;28;20580;-44
2022/09/25 10:32:02;;;;;;;10.90;2.67;;;18.50;68.50;19.20;100602.00;;;;4970550;28;20566;-42
2022/09/25 10:34:30;;;;;;;10.83;2.80;;;18.50;68.80;19.20;100594.00;;;;4970958;28;20201;-42
2022/09/25 10:36:55;;;;;;;8.00;2.43;;;18.60;69.60;19.20;100595.00;;;;4971102;28;20199;-43
2022/09/25 10:39:30;;;;;;;6.13;2.17;;;18.60;69.60;19.30;100598.00;;;;4972618;28;20180;-42
2022/09/25 10:42:00;;;;;;;6.73;2.10;;;18.50;69.40;19.30;100590.00;;;;4970774;28;20166;-43
2022/09/25 10:44:44;;;;;;;7.37;2.13;;;18.50;69.20;19.40;100581.00;;;;4972067;28;20690;-43
2022/09/25 10:50:25;;;;;;;5.77;2.10;;;18.60;69.20;19.40;100583.00;;;;4991427;28;20227;-43
2022/09/25 10:53:00;;;;;;;5.80;2.30;;;18.60;69.10;19.40;100575.00;;;;4986798;28;20165;-44
2022/09/25 10:55:38;;;;;;;8.97;2.63;;;18.60;69.40;19.40;100587.00;;;;4972019;28;20232;-43
2022/09/25 10:58:23;;;;;;;5.23;2.10;;;18.60;69.30;19.40;100590.00;;;;4920050;28;20211;-44
2022/09/25 11:00:48;;;;;;;5.23;2.13;;;18.70;69.20;19.40;100579.00;;;;4991849;28;20179;-44
2022/09/25 11:03:34;;;;;;;7.17;2.33;;;18.70;69.00;19.50;100590.00;;;;4991562;28;20160;-43
2022/09/25 11:06:25;;;;;;;11.37;2.53;;;18.70;69.10;19.50;100575.00;;;;4988996;28;20183;-42
2022/09/25 11:09:11;;;;;;;4.33;2.20;;;18.80;68.90;19.50;100578.00;;;;4991517;28;20228;-42
2022/09/25 11:11:38;;;;;;;5.97;2.03;;;18.70;68.80;19.50;100587.00;;;;4991315;28;20198;-43
2022/09/25 11:14:04;;;;;;;6.03;1.90;;;18.80;68.90;19.50;100564.00;;;;4977996;28;20212;-42
2022/09/25 11:16:51;;;;;;;9.57;2.57;;;18.80;68.70;19.60;100580.00;;;;4965284;28;20188;-44
2022/09/25 11:19:37;;;;;;;11.57;2.30;;;18.80;68.60;19.60;100573.00;;;;4970172;28;20673;-42
2022/09/25 11:22:19;;;;;;;6.77;2.17;;;18.90;68.60;19.60;100572.00;;;;4970243;28;20169;-42